Searles, Alabama
Current Conditions -  °F | °C
As of 2:53 AM on Friday 28 Nov 2014 (Local Time) from KTCL Reporting Station
Clear Clear  
Wind Chill: 29°   Ceiling: Unl
Heat Index: 29°   Visibility: 9mi
Dew Point: 26°   Wind: 0mph
Humidity: 89%   Direction: NA
Pressure: 30.47"   Gusts: NA
Location:  33.3408°N, 87.3044°W
Report Text: KTCL 280853Z AUTO 00000KT 9SM CLR M02/M03 A3047 RMK AO2 SLP317 T10171033 50002
Loading
Personal Weather Stations






























Interactive Weather Map New forecast layout! Learn more

10-Day Weather Forecast

Advertisements
Track Severe Weather on mobile